Terminal Aerodrome Forecast
Issued by NWS

Home | Current Version | Previous Version | Text Only | Print | Product List | Glossary On
Versions: 1 2 3 4 5 6 7 8 9 10 11 12 13 14 15 16 17 18 19 20 21 22 23
000
FTUS41 KBOX 072335
TAFHYA
TAF
KHYA 072335Z 0800/0824 VRB03KT P6SM SCT025 BKN040
     FM080200 VRB03KT 3SM BR SCT050 BKN150
     FM081200 26006KT P6SM BKN025
     FM081600 25007KT P6SM BKN110=

USA.gov is the U.S. government's official web portal to all federal, state and local government web resources and services.